Aeroboteco Virtual Airlines! Uma nuvem a frente.



 INFORMAÇÕES METEOROLÓGICAS
METAR FOR LEBG
ADDS - METARS form results

(2145 UTC 23 May 2019)
Data provider http://aviationweather.gov/metar/data/
 
METAR text: LEBG 232130Z AUTO 03014KT 360V060 9999 BKN011 OVC016 11/09 Q1019
Conditions at: LEBG (BURGOS/VILLAFRIA, ES) observed 2130 UTC 23 May 2019
Temperature: 11.0°C (52°F)
Dewpoint: 9.0°C (48°F) [RH = 87%]
Pressure (altimeter): 30.09 inches Hg (1019.0 mb)
Winds: from the NNE (30 degrees) at 16 MPH (14 knots; 7.2 m/s)
Visibility: 6 or more miles (10+ km)
Ceiling: 1100 feet AGL
Clouds: broken clouds at 1100 feet AGL
overcast cloud deck at 1600 feet AGL
Weather: no significant weather observed at this time

METAR text: LEBG 232100Z AUTO 02016KT 9999 OVC011 11/09 Q1019
Conditions at: LEBG (BURGOS/VILLAFRIA, ES) observed 2100 UTC 23 May 2019
Temperature: 11.0°C (52°F)
Dewpoint: 9.0°C (48°F) [RH = 87%]
Pressure (altimeter): 30.09 inches Hg (1019.0 mb)
Winds: from the NNE (20 degrees) at 18 MPH (16 knots; 8.2 m/s)
Visibility: 6 or more miles (10+ km)
Ceiling: 1100 feet AGL
Clouds: overcast cloud deck at 1100 feet AGL
Weather: no significant weather observed at this time

Forecast for: LEBG (BURGOS/VILLAFRIA, ES)
Text: TAF LEBG 231700Z 2318/2403 02014KT CAVOK
Forecast period: 1800 UTC 23 May 2019 to 0300 UTC 24 May 2019
Forecast type: FROM: standard forecast or significant change
Winds: from the NNE (20 degrees) at 16 MPH (14 knots; 7.2 m/s)
Visibility: 6 or more miles 10+ km)
Ceiling: unknown
Clouds: missing
Weather: NSW  (no significant weather)
Text: PROB30
Forecast period: 1800 to 2100 UTC 23 May 2019
Forecast type: TEMPORARY: The following changes expected for less than half the time period
Visibility: 1.86 miles (2.99 km)
Ceiling: at least 12,000 feet AGL
Clouds: scattered clouds at 3000 feet AGL
Weather: SHRA  (rain showers)
Text: TEMPO 2318/2321 3000 SHRA SCT030TCU
Forecast period: 2200 UTC 23 May 2019 to 0100 UTC 24 May 2019
Forecast type: TEMPORARY: The following changes expected for less than half the time period
Visibility: missing
Ceiling: 800 feet AGL
Clouds: broken clouds at 800 feet AGL
Weather: no significant weather forecast for this period

 MAPA DO AEROPORTO

 INFORMAÇÕES DA PISTA
Pista 06 Tamanho da pista 4393 ft Largura da pista 98 ft
Elevação da pista 2907 ft Ranhura da pista 0 ft Proa da pista 56
Pista 24 Tamanho da pista 4393 ft Largura da pista 98 ft
Elevação da pista 2945 ft Ranhura da pista 0 ft Proa da pista 236

 FREQUÊNCIAS DO AEROPORTO
Tipo UNIC Nome UNIC Frequência 122.4 MHZ

 AUXÍLIOS DE NAVEGAÇÃO PRÓXIMOS AO AEROPORTO
Tipo NDB Nome Burgos Frequência 357 KHZ
Tipo VOR-DME Nome Burgos Frequência 111400 KHZ